Terminal Aerodrome Forecast
Issued by NWS

Home | Current Version | Previous Version | Text Only | Print | Product List | Glossary On
Versions: 1 2 3 4 5 6 7 8 9 10 11 12
000
FTUS41 KAKQ 221538 AAA
TAFPHF
TAF AMD
KPHF 221538Z 2216/2312 33010KT P6SM BKN060
     FM221700 33011G17KT P6SM SCT050
     FM222200 36010KT P6SM SKC=

USA.gov is the U.S. government's official web portal to all federal, state and local government web resources and services.